Etusivu
METAR-TAF:

METAR-TAF

Lentoasemat :

Ghat, Libya

Leveyspiiri: 25-08N, Pituuspiiri: 010-09E, korkeus merenpinnasta: 699 m

METAR: puuttuu

Aika: 05:43 (03:43 UTC)

Sääennuste

Tämä raportti tehtiin 22 tuntia ja 43 minuuttia sitten, kello 05.00 UTC
Ennuste voimassa 24. päivästä klo 06 UTC - 24. päivään klo 15 UTC
Tuuli 2 kn eri suunnista
Näkyvyys 10 km tai enemmän
ei pilviä alle 1500 m:ssä eikä cumulonimbus-pilviä
Tulossa
24. päivästä klo 10 UTC - 24. päivään klo 12 UTC
Tuuli 10 kn pohjoisesta/koillisesta

TAF: HLGT 240500Z 2406/2415 VRB02KT CAVOK BECMG 2410/2412 03010KT

Säähavainnot ja -ennusteet yli 4000 lentoasemalta (METAR- ja TAF-raportit).

Käytössä olevat sääasemat on merkitty karttaan keltaisilla ja punaisilla pisteillä.

Aseta hiiri pisteen päälle nähdäksesi sääaseman nimen.

Klikkaa sitten nähdäksesi säähavainnot ja -ennusteet.

Kartan vaihtaminen: klikkaa mustalla rastilla varustettuja vihreitä pisteitä, niin voit zoomata sisään; viivalla varustettua vihreää pistettä, niin voit zoomata ulos tai vihreitä nuolia, niin pääset viereisille kartoille.


METAR-TAF: